sensor_id;sensor_type;location;lat;lon;timestamp;temperature;humidity
21489;DHT22;10906;45.194;5.684;2023-03-01T06:02:37;4.30;94.00
21489;DHT22;10906;45.194;5.684;2023-03-01T06:05:22;4.30;94.10
21489;DHT22;10906;45.194;5.684;2023-03-01T06:08:08;4.80;94.20
21489;DHT22;10906;45.194;5.684;2023-03-01T06:10:53;4.40;94.00
21489;DHT22;10906;45.194;5.684;2023-03-01T06:13:38;4.70;94.20
21489;DHT22;10906;45.194;5.684;2023-03-01T06:16:22;4.40;94.10
21489;DHT22;10906;45.194;5.684;2023-03-01T06:19:06;4.40;93.90
21489;DHT22;10906;45.194;5.684;2023-03-01T06:21:51;4.10;94.00
21489;DHT22;10906;45.194;5.684;2023-03-01T06:24:35;4.10;94.10
21489;DHT22;10906;45.194;5.684;2023-03-01T06:27:20;4.10;94.10
21489;DHT22;10906;45.194;5.684;2023-03-01T06:30:05;4.00;94.10
21489;DHT22;10906;45.194;5.684;2023-03-01T06:32:49;4.10;94.20
21489;DHT22;10906;45.194;5.684;2023-03-01T06:35:34;4.50;94.40
21489;DHT22;10906;45.194;5.684;2023-03-01T06:38:19;4.10;94.20
21489;DHT22;10906;45.194;5.684;2023-03-01T06:41:03;4.00;94.20
21489;DHT22;10906;45.194;5.684;2023-03-01T06:43:48;4.00;94.10
21489;DHT22;10906;45.194;5.684;2023-03-01T06:46:32;4.00;94.20
21489;DHT22;10906;45.194;5.684;2023-03-01T06:49:17;5.00;94.70
21489;DHT22;10906;45.194;5.684;2023-03-01T06:52:01;4.20;94.40
21489;DHT22;10906;45.194;5.684;2023-03-01T06:54:46;4.40;94.40
21489;DHT22;10906;45.194;5.684;2023-03-01T06:57:31;4.00;94.20
21489;DHT22;10906;45.194;5.684;2023-03-01T07:00:15;4.10;94.30
21489;DHT22;10906;45.194;5.684;2023-03-01T07:03:01;4.00;94.20
21489;DHT22;10906;45.194;5.684;2023-03-01T07:05:49;3.90;94.20
21489;DHT22;10906;45.194;5.684;2023-03-01T07:08:33;3.90;94.40
21489;DHT22;10906;45.194;5.684;2023-03-01T07:11:18;4.00;94.50
21489;DHT22;10906;45.194;5.684;2023-03-01T07:14:03;3.90;94.50
21489;DHT22;10906;45.194;5.684;2023-03-01T07:16:47;3.90;94.40
21489;DHT22;10906;45.194;5.684;2023-03-01T07:19:32;3.90;94.40
21489;DHT22;10906;45.194;5.684;2023-03-01T07:22:16;5.20;94.90
21489;DHT22;10906;45.194;5.684;2023-03-01T07:25:01;4.30;94.60
21489;DHT22;10906;45.194;5.684;2023-03-01T07:27:50;3.90;94.50
21489;DHT22;10906;45.194;5.684;2023-03-01T07:30:35;4.40;94.70
21489;DHT22;10906;45.194;5.684;2023-03-01T07:33:19;3.90;94.60
21489;DHT22;10906;45.194;5.684;2023-03-01T07:36:05;4.00;94.50
21489;DHT22;10906;45.194;5.684;2023-03-01T07:38:49;3.90;94.50
21489;DHT22;10906;45.194;5.684;2023-03-01T07:41:34;3.90;94.60
21489;DHT22;10906;45.194;5.684;2023-03-01T07:44:18;3.90;94.70
21489;DHT22;10906;45.194;5.684;2023-03-01T07:47:03;4.80;95.10
21489;DHT22;10906;45.194;5.684;2023-03-01T07:49:47;3.90;95.10
21489;DHT22;10906;45.194;5.684;2023-03-01T07:52:35;3.80;94.80
21489;DHT22;10906;45.194;5.684;2023-03-01T07:55:20;3.90;94.60
21489;DHT22;10906;45.194;5.684;2023-03-01T07:58:04;4.30;94.90
21489;DHT22;10906;45.194;5.684;2023-03-01T08:00:49;3.80;95.00
21489;DHT22;10906;45.194;5.684;2023-03-01T08:03:34;3.90;95.00
21489;DHT22;10906;45.194;5.684;2023-03-01T08:06:19;3.90;94.70
21489;DHT22;10906;45.194;5.684;2023-03-01T08:09:04;3.80;94.80
21489;DHT22;10906;45.194;5.684;2023-03-01T08:11:48;3.10;94.60
21489;DHT22;10906;45.194;5.684;2023-03-01T08:14:33;3.80;95.20
21489;DHT22;10906;45.194;5.684;2023-03-01T08:17:17;3.80;94.80
21489;DHT22;10906;45.194;5.684;2023-03-01T08:20:03;3.80;94.60
21489;DHT22;10906;45.194;5.684;2023-03-01T08:22:49;3.80;94.60
21489;DHT22;10906;45.194;5.684;2023-03-01T08:25:34;3.90;94.70
21489;DHT22;10906;45.194;5.684;2023-03-01T08:28:19;3.90;94.70
21489;DHT22;10906;45.194;5.684;2023-03-01T08:31:17;3.90;94.70
21489;DHT22;10906;45.194;5.684;2023-03-01T08:34:07;4.00;94.60
21489;DHT22;10906;45.194;5.684;2023-03-01T08:36:51;4.00;94.70
21489;DHT22;10906;45.194;5.684;2023-03-01T08:39:36;4.00;94.80
21489;DHT22;10906;45.194;5.684;2023-03-01T08:42:20;4.10;94.80
21489;DHT22;10906;45.194;5.684;2023-03-01T08:45:06;4.70;95.20
21489;DHT22;10906;45.194;5.684;2023-03-01T08:47:52;4.20;94.60
21489;DHT22;10906;45.194;5.684;2023-03-01T08:50:37;4.20;94.50
21489;DHT22;10906;45.194;5.684;2023-03-01T08:53:22;4.20;94.60
21489;DHT22;10906;45.194;5.684;2023-03-01T08:56:07;4.20;94.50
21489;DHT22;10906;45.194;5.684;2023-03-01T08:58:52;4.30;94.50
21489;DHT22;10906;45.194;5.684;2023-03-01T09:01:36;4.30;94.80
21489;DHT22;10906;45.194;5.684;2023-03-01T09:04:21;4.30;94.50
21489;DHT22;10906;45.194;5.684;2023-03-01T09:07:05;4.40;94.50
21489;DHT22;10906;45.194;5.684;2023-03-01T09:09:50;4.50;94.50
21489;DHT22;10906;45.194;5.684;2023-03-01T09:12:37;4.40;94.60
21489;DHT22;10906;45.194;5.684;2023-03-01T09:15:22;4.40;94.40
21489;DHT22;10906;45.194;5.684;2023-03-01T09:18:06;4.40;94.50
21489;DHT22;10906;45.194;5.684;2023-03-01T09:20:51;4.40;94.50
21489;DHT22;10906;45.194;5.684;2023-03-01T09:23:39;4.70;94.80
21489;DHT22;10906;45.194;5.684;2023-03-01T09:26:28;4.50;94.60
21489;DHT22;10906;45.194;5.684;2023-03-01T09:29:13;5.50;94.90
21489;DHT22;10906;45.194;5.684;2023-03-01T09:31:58;4.60;94.60
21489;DHT22;10906;45.194;5.684;2023-03-01T09:34:42;4.70;94.50
21489;DHT22;10906;45.194;5.684;2023-03-01T09:37:45;4.70;94.40
21489;DHT22;10906;45.194;5.684;2023-03-01T09:40:30;4.70;94.50
21489;DHT22;10906;45.194;5.684;2023-03-01T09:46:24;4.70;94.40
21489;DHT22;10906;45.194;5.684;2023-03-01T09:49:17;4.90;94.40
21489;DHT22;10906;45.194;5.684;2023-03-01T10:08:27;5.10;93.80
21489;DHT22;10906;45.194;5.684;2023-03-01T10:11:29;5.20;94.00
21489;DHT22;10906;45.194;5.684;2023-03-01T10:14:36;5.30;93.80
21489;DHT22;10906;45.194;5.684;2023-03-01T10:20:19;5.30;93.70
21489;DHT22;10906;45.194;5.684;2023-03-01T10:23:04;5.40;93.80
21489;DHT22;10906;45.194;5.684;2023-03-01T10:29:04;5.50;93.30
21489;DHT22;10906;45.194;5.684;2023-03-01T10:31:52;5.60;93.40
21489;DHT22;10906;45.194;5.684;2023-03-01T10:34:37;5.70;93.40
21489;DHT22;10906;45.194;5.684;2023-03-01T10:37:21;5.70;93.20
21489;DHT22;10906;45.194;5.684;2023-03-01T10:40:09;5.80;92.30
21489;DHT22;10906;45.194;5.684;2023-03-01T10:42:57;5.90;93.40
21489;DHT22;10906;45.194;5.684;2023-03-01T10:45:42;6.00;93.20
21489;DHT22;10906;45.194;5.684;2023-03-01T10:48:27;6.00;93.10
21489;DHT22;10906;45.194;5.684;2023-03-01T10:51:17;6.10;93.00
21489;DHT22;10906;45.194;5.684;2023-03-01T10:54:04;6.20;92.90
21489;DHT22;10906;45.194;5.684;2023-03-01T10:56:51;6.20;92.70
21489;DHT22;10906;45.194;5.684;2023-03-01T10:59:39;6.20;92.60
21489;DHT22;10906;45.194;5.684;2023-03-01T11:02:29;6.20;92.50
21489;DHT22;10906;45.194;5.684;2023-03-01T11:08:01;6.30;92.80
21489;DHT22;10906;45.194;5.684;2023-03-01T11:10:47;6.30;93.00
21489;DHT22;10906;45.194;5.684;2023-03-01T11:13:31;6.30;92.90
21489;DHT22;10906;45.194;5.684;2023-03-01T11:24:49;6.50;92.80
21489;DHT22;10906;45.194;5.684;2023-03-01T11:27:39;6.50;92.70
21489;DHT22;10906;45.194;5.684;2023-03-01T11:30:35;6.50;92.60
21489;DHT22;10906;45.194;5.684;2023-03-01T11:33:57;6.40;92.40
21489;DHT22;10906;45.194;5.684;2023-03-01T12:03:24;6.60;91.90
21489;DHT22;10906;45.194;5.684;2023-03-01T12:06:24;6.70;92.00
21489;DHT22;10906;45.194;5.684;2023-03-01T12:09:38;6.70;92.00
21489;DHT22;10906;45.194;5.684;2023-03-01T12:38:00;7.00;91.00
21489;DHT22;10906;45.194;5.684;2023-03-01T12:46:52;7.00;91.20
21489;DHT22;10906;45.194;5.684;2023-03-01T12:49:53;7.00;91.00
21489;DHT22;10906;45.194;5.684;2023-03-01T12:52:45;7.00;91.20
21489;DHT22;10906;45.194;5.684;2023-03-01T12:55:37;7.10;91.30
21489;DHT22;10906;45.194;5.684;2023-03-01T13:07:49;7.20;91.10
21489;DHT22;10906;45.194;5.684;2023-03-01T13:10:48;7.20;90.40
21489;DHT22;10906;45.194;5.684;2023-03-01T13:13:33;7.20;90.70
21489;DHT22;10906;45.194;5.684;2023-03-01T13:16:39;7.40;90.80
21489;DHT22;10906;45.194;5.684;2023-03-01T13:19:26;7.50;90.50
21489;DHT22;10906;45.194;5.684;2023-03-01T13:22:30;7.50;90.60
21489;DHT22;10906;45.194;5.684;2023-03-01T13:25:19;7.60;90.50
21489;DHT22;10906;45.194;5.684;2023-03-01T13:34:41;8.30;90.50
21489;DHT22;10906;45.194;5.684;2023-03-01T13:37:38;8.50;89.20
21489;DHT22;10906;45.194;5.684;2023-03-01T13:43:31;8.60;89.70
21489;DHT22;10906;45.194;5.684;2023-03-01T13:46:23;8.70;88.60
21489;DHT22;10906;45.194;5.684;2023-03-01T13:49:21;8.80;88.60
21489;DHT22;10906;45.194;5.684;2023-03-01T13:52:34;8.90;88.80
21489;DHT22;10906;45.194;5.684;2023-03-01T13:55:45;9.00;88.20
21489;DHT22;10906;45.194;5.684;2023-03-01T13:58:43;9.00;86.20
21489;DHT22;10906;45.194;5.684;2023-03-01T14:01:33;9.20;87.50
21489;DHT22;10906;45.194;5.684;2023-03-01T14:04:25;9.50;87.50
21489;DHT22;10906;45.194;5.684;2023-03-01T14:07:21;9.60;86.70
21489;DHT22;10906;45.194;5.684;2023-03-01T14:10:11;9.50;86.10
21489;DHT22;10906;45.194;5.684;2023-03-01T14:19:17;9.40;87.00
21489;DHT22;10906;45.194;5.684;2023-03-01T14:22:22;9.40;86.60
21489;DHT22;10906;45.194;5.684;2023-03-01T14:25:19;9.40;85.60
21489;DHT22;10906;45.194;5.684;2023-03-01T14:31:00;9.60;85.40
21489;DHT22;10906;45.194;5.684;2023-03-01T14:33:55;9.90;85.10
21489;DHT22;10906;45.194;5.684;2023-03-01T14:36:39;9.70;83.70
21489;DHT22;10906;45.194;5.684;2023-03-01T14:39:25;9.30;81.40
21489;DHT22;10906;45.194;5.684;2023-03-01T14:42:11;9.00;85.00
21489;DHT22;10906;45.194;5.684;2023-03-01T14:44:57;8.80;85.10
21489;DHT22;10906;45.194;5.684;2023-03-01T14:47:44;8.60;85.20
21489;DHT22;10906;45.194;5.684;2023-03-01T14:50:31;8.70;86.20
21489;DHT22;10906;45.194;5.684;2023-03-01T14:53:23;9.00;86.20
21489;DHT22;10906;45.194;5.684;2023-03-01T14:56:15;9.10;85.40
21489;DHT22;10906;45.194;5.684;2023-03-01T14:59:03;9.30;85.80
21489;DHT22;10906;45.194;5.684;2023-03-01T15:01:53;9.60;84.70
21489;DHT22;10906;45.194;5.684;2023-03-01T15:04:38;9.80;84.10
21489;DHT22;10906;45.194;5.684;2023-03-01T15:07:30;10.00;81.40
21489;DHT22;10906;45.194;5.684;2023-03-01T15:10:27;10.30;80.40
21489;DHT22;10906;45.194;5.684;2023-03-01T15:13:14;10.50;80.00
21489;DHT22;10906;45.194;5.684;2023-03-01T15:16:09;10.50;80.60
21489;DHT22;10906;45.194;5.684;2023-03-01T15:19:01;10.50;79.90
21489;DHT22;10906;45.194;5.684;2023-03-01T15:21:48;10.50;79.30
21489;DHT22;10906;45.194;5.684;2023-03-01T15:24:33;10.50;80.00
21489;DHT22;10906;45.194;5.684;2023-03-01T15:27:22;10.60;79.80
21489;DHT22;10906;45.194;5.684;2023-03-01T15:30:22;10.70;79.70
21489;DHT22;10906;45.194;5.684;2023-03-01T15:33:31;10.60;79.10
21489;DHT22;10906;45.194;5.684;2023-03-01T15:36:36;10.40;78.50
21489;DHT22;10906;45.194;5.684;2023-03-01T15:39:36;9.80;78.90
21489;DHT22;10906;45.194;5.684;2023-03-01T15:48:17;9.30;81.50
21489;DHT22;10906;45.194;5.684;2023-03-01T15:51:12;9.50;81.40
21489;DHT22;10906;45.194;5.684;2023-03-01T15:54:02;9.60;80.60
21489;DHT22;10906;45.194;5.684;2023-03-01T15:56:47;9.50;80.90
21489;DHT22;10906;45.194;5.684;2023-03-01T15:59:32;9.50;80.60
21489;DHT22;10906;45.194;5.684;2023-03-01T16:02:16;9.10;80.50
21489;DHT22;10906;45.194;5.684;2023-03-01T16:05:01;8.60;81.10
21489;DHT22;10906;45.194;5.684;2023-03-01T16:07:45;8.20;81.80
21489;DHT22;10906;45.194;5.684;2023-03-01T16:10:30;7.90;82.50
21489;DHT22;10906;45.194;5.684;2023-03-01T16:13:15;7.60;83.30
21489;DHT22;10906;45.194;5.684;2023-03-01T16:16:02;7.50;83.50
21489;DHT22;10906;45.194;5.684;2023-03-01T16:18:46;7.30;83.40
21489;DHT22;10906;45.194;5.684;2023-03-01T16:21:31;7.10;84.00
21489;DHT22;10906;45.194;5.684;2023-03-01T16:24:15;7.00;84.60
21489;DHT22;10906;45.194;5.684;2023-03-01T16:27:01;6.90;84.60
21489;DHT22;10906;45.194;5.684;2023-03-01T16:29:46;6.80;85.00
21489;DHT22;10906;45.194;5.684;2023-03-01T16:32:31;6.70;85.60
21489;DHT22;10906;45.194;5.684;2023-03-01T16:35:18;6.50;86.40
21489;DHT22;10906;45.194;5.684;2023-03-01T16:38:02;6.40;86.10
21489;DHT22;10906;45.194;5.684;2023-03-01T16:40:49;6.40;86.40
21489;DHT22;10906;45.194;5.684;2023-03-01T16:43:34;6.20;86.20
21489;DHT22;10906;45.194;5.684;2023-03-01T16:46:21;6.20;86.80
21489;DHT22;10906;45.194;5.684;2023-03-01T16:49:06;6.00;86.90
21489;DHT22;10906;45.194;5.684;2023-03-01T16:51:53;5.90;87.10
21489;DHT22;10906;45.194;5.684;2023-03-01T16:54:37;5.90;87.40
21489;DHT22;10906;45.194;5.684;2023-03-01T16:57:22;5.80;87.70
21489;DHT22;10906;45.194;5.684;2023-03-01T17:00:08;5.80;87.80
21489;DHT22;10906;45.194;5.684;2023-03-01T17:02:54;5.70;87.60
21489;DHT22;10906;45.194;5.684;2023-03-01T17:05:42;5.60;88.90
21489;DHT22;10906;45.194;5.684;2023-03-01T17:08:27;5.60;88.60
21489;DHT22;10906;45.194;5.684;2023-03-01T17:11:16;5.60;88.50
21489;DHT22;10906;45.194;5.684;2023-03-01T17:14:02;5.50;88.60
21489;DHT22;10906;45.194;5.684;2023-03-01T17:16:46;5.50;90.00
21489;DHT22;10906;45.194;5.684;2023-03-01T17:19:31;5.50;89.30
21489;DHT22;10906;45.194;5.684;2023-03-01T17:22:15;5.40;89.00
21489;DHT22;10906;45.194;5.684;2023-03-01T17:25:03;5.40;89.10
21489;DHT22;10906;45.194;5.684;2023-03-01T17:27:51;5.40;89.80
21489;DHT22;10906;45.194;5.684;2023-03-01T17:30:35;5.20;89.50
21489;DHT22;10906;45.194;5.684;2023-03-01T17:33:21;5.30;89.60
21489;DHT22;10906;45.194;5.684;2023-03-01T17:36:06;5.30;89.90
21489;DHT22;10906;45.194;5.684;2023-03-01T17:38:51;5.30;90.00
21489;DHT22;10906;45.194;5.684;2023-03-01T17:41:35;5.30;90.10
21489;DHT22;10906;45.194;5.684;2023-03-01T17:44:20;5.30;90.20
21489;DHT22;10906;45.194;5.684;2023-03-01T17:47:05;5.40;90.20
21489;DHT22;10906;45.194;5.684;2023-03-01T17:49:49;5.20;90.20
21489;DHT22;10906;45.194;5.684;2023-03-01T17:52:34;5.20;90.20
21489;DHT22;10906;45.194;5.684;2023-03-01T17:55:18;5.20;90.10
21489;DHT22;10906;45.194;5.684;2023-03-01T17:58:04;5.70;90.50
21489;DHT22;10906;45.194;5.684;2023-03-01T18:00:49;5.20;90.30
21489;DHT22;10906;45.194;5.684;2023-03-01T18:03:34;5.20;90.40
21489;DHT22;10906;45.194;5.684;2023-03-01T18:06:23;5.20;90.40
21489;DHT22;10906;45.194;5.684;2023-03-01T18:09:09;5.60;90.70
21489;DHT22;10906;45.194;5.684;2023-03-01T18:11:55;5.20;90.40
21489;DHT22;10906;45.194;5.684;2023-03-01T18:14:39;5.10;90.50
21489;DHT22;10906;45.194;5.684;2023-03-01T18:17:24;5.20;90.70
21489;DHT22;10906;45.194;5.684;2023-03-01T18:20:10;5.00;90.60
21489;DHT22;10906;45.194;5.684;2023-03-01T18:22:56;5.10;90.80
21489;DHT22;10906;45.194;5.684;2023-03-01T18:25:41;4.90;91.50
21489;DHT22;10906;45.194;5.684;2023-03-01T18:28:29;5.00;91.40
21489;DHT22;10906;45.194;5.684;2023-03-01T18:31:15;5.00;90.70
21489;DHT22;10906;45.194;5.684;2023-03-01T18:34:10;5.10;90.80
21489;DHT22;10906;45.194;5.684;2023-03-01T18:37:05;4.90;90.70
21489;DHT22;10906;45.194;5.684;2023-03-01T18:39:53;5.00;91.50
21489;DHT22;10906;45.194;5.684;2023-03-01T18:42:38;5.00;91.10
21489;DHT22;10906;45.194;5.684;2023-03-01T18:45:22;5.00;91.20
21489;DHT22;10906;45.194;5.684;2023-03-01T18:48:06;5.00;90.90
21489;DHT22;10906;45.194;5.684;2023-03-01T18:50:51;5.00;90.90
21489;DHT22;10906;45.194;5.684;2023-03-01T18:53:38;5.00;90.90
21489;DHT22;10906;45.194;5.684;2023-03-01T18:56:22;5.00;91.00
21489;DHT22;10906;45.194;5.684;2023-03-01T18:59:07;5.00;91.10
21489;DHT22;10906;45.194;5.684;2023-03-01T19:01:51;5.00;91.10
21489;DHT22;10906;45.194;5.684;2023-03-01T19:04:36;5.00;91.20
21489;DHT22;10906;45.194;5.684;2023-03-01T19:07:21;5.00;91.20
21489;DHT22;10906;45.194;5.684;2023-03-01T19:10:11;5.00;91.30
21489;DHT22;10906;45.194;5.684;2023-03-01T19:12:56;5.00;91.50
21489;DHT22;10906;45.194;5.684;2023-03-01T19:15:40;5.00;91.20
21489;DHT22;10906;45.194;5.684;2023-03-01T19:18:25;4.90;91.10
21489;DHT22;10906;45.194;5.684;2023-03-01T19:21:10;5.00;92.00
21489;DHT22;10906;45.194;5.684;2023-03-01T19:23:58;4.90;91.30
21489;DHT22;10906;45.194;5.684;2023-03-01T19:26:45;5.00;91.20
21489;DHT22;10906;45.194;5.684;2023-03-01T19:29:41;5.00;91.50
21489;DHT22;10906;45.194;5.684;2023-03-01T19:32:26;5.00;91.50
21489;DHT22;10906;45.194;5.684;2023-03-01T19:35:11;5.00;91.40
21489;DHT22;10906;45.194;5.684;2023-03-01T19:37:55;4.90;91.30
21489;DHT22;10906;45.194;5.684;2023-03-01T19:40:39;4.90;91.50
21489;DHT22;10906;45.194;5.684;2023-03-01T19:43:24;4.90;91.40
21489;DHT22;10906;45.194;5.684;2023-03-01T19:46:09;4.90;91.50
21489;DHT22;10906;45.194;5.684;2023-03-01T19:48:54;5.00;91.60
21489;DHT22;10906;45.194;5.684;2023-03-01T19:51:39;4.90;91.60
21489;DHT22;10906;45.194;5.684;2023-03-01T19:54:23;4.90;91.70
21489;DHT22;10906;45.194;5.684;2023-03-01T19:57:08;4.90;91.70
21489;DHT22;10906;45.194;5.684;2023-03-01T19:59:52;4.90;91.70
21489;DHT22;10906;45.194;5.684;2023-03-01T20:02:37;4.80;91.70
21489;DHT22;10906;45.194;5.684;2023-03-01T20:05:21;5.50;92.00
21489;DHT22;10906;45.194;5.684;2023-03-01T20:08:05;4.90;91.90
21489;DHT22;10906;45.194;5.684;2023-03-01T20:10:52;4.80;91.90
21489;DHT22;10906;45.194;5.684;2023-03-01T20:13:37;4.80;92.00
21489;DHT22;10906;45.194;5.684;2023-03-01T20:16:21;4.90;91.90
21489;DHT22;10906;45.194;5.684;2023-03-01T20:19:07;4.80;92.00
21489;DHT22;10906;45.194;5.684;2023-03-01T20:21:52;4.80;91.80
21489;DHT22;10906;45.194;5.684;2023-03-01T20:24:36;4.90;92.00
21489;DHT22;10906;45.194;5.684;2023-03-01T20:27:21;4.90;92.00
21489;DHT22;10906;45.194;5.684;2023-03-01T20:30:05;4.90;91.90
21489;DHT22;10906;45.194;5.684;2023-03-01T20:32:50;4.90;92.00
21489;DHT22;10906;45.194;5.684;2023-03-01T20:35:35;4.90;92.00
21489;DHT22;10906;45.194;5.684;2023-03-01T20:38:19;4.90;92.20
21489;DHT22;10906;45.194;5.684;2023-03-01T20:41:11;4.90;92.10
21489;DHT22;10906;45.194;5.684;2023-03-01T20:43:56;4.90;92.20
21489;DHT22;10906;45.194;5.684;2023-03-01T20:46:42;4.90;92.20
21489;DHT22;10906;45.194;5.684;2023-03-01T20:49:26;4.90;92.20
21489;DHT22;10906;45.194;5.684;2023-03-01T20:52:11;4.90;92.10
21489;DHT22;10906;45.194;5.684;2023-03-01T20:54:55;4.80;92.50
21489;DHT22;10906;45.194;5.684;2023-03-01T20:57:40;4.80;92.20
21489;DHT22;10906;45.194;5.684;2023-03-01T21:00:24;4.80;92.20
21489;DHT22;10906;45.194;5.684;2023-03-01T21:03:09;4.80;92.30
21489;DHT22;10906;45.194;5.684;2023-03-01T21:05:57;4.80;92.20
21489;DHT22;10906;45.194;5.684;2023-03-01T21:08:43;4.80;92.20
21489;DHT22;10906;45.194;5.684;2023-03-01T21:11:27;4.80;92.30
21489;DHT22;10906;45.194;5.684;2023-03-01T21:14:12;4.80;92.50
21489;DHT22;10906;45.194;5.684;2023-03-01T21:16:56;4.80;92.40
21489;DHT22;10906;45.194;5.684;2023-03-01T21:19:42;4.80;92.30
21489;DHT22;10906;45.194;5.684;2023-03-01T21:22:27;3.70;91.80
21489;DHT22;10906;45.194;5.684;2023-03-01T21:25:13;4.70;92.50
21489;DHT22;10906;45.194;5.684;2023-03-01T21:27:58;4.70;92.60
21489;DHT22;10906;45.194;5.684;2023-03-01T21:30:42;4.80;92.60
21489;DHT22;10906;45.194;5.684;2023-03-01T21:33:27;4.80;92.60
21489;DHT22;10906;45.194;5.684;2023-03-01T21:36:12;4.80;92.60
21489;DHT22;10906;45.194;5.684;2023-03-01T21:38:58;4.80;92.60
21489;DHT22;10906;45.194;5.684;2023-03-01T21:41:44;4.80;92.70
21489;DHT22;10906;45.194;5.684;2023-03-01T21:44:34;4.80;92.80
21489;DHT22;10906;45.194;5.684;2023-03-01T21:47:19;4.80;93.10
21489;DHT22;10906;45.194;5.684;2023-03-01T21:50:24;4.70;93.60
21489;DHT22;10906;45.194;5.684;2023-03-01T21:53:17;4.70;93.70
21489;DHT22;10906;45.194;5.684;2023-03-01T21:56:03;6.00;93.30
21489;DHT22;10906;45.194;5.684;2023-03-01T21:58:48;4.70;93.20
21489;DHT22;10906;45.194;5.684;2023-03-01T22:01:40;4.80;93.10
21489;DHT22;10906;45.194;5.684;2023-03-01T22:04:53;4.80;93.00
21489;DHT22;10906;45.194;5.684;2023-03-01T22:07:42;4.80;92.90
21489;DHT22;10906;45.194;5.684;2023-03-01T22:10:30;4.80;93.10
21489;DHT22;10906;45.194;5.684;2023-03-01T22:13:17;4.90;93.30
21489;DHT22;10906;45.194;5.684;2023-03-01T22:16:06;4.80;93.40
21489;DHT22;10906;45.194;5.684;2023-03-01T22:18:59;4.80;93.70
21489;DHT22;10906;45.194;5.684;2023-03-01T22:21:51;4.80;93.00
21489;DHT22;10906;45.194;5.684;2023-03-01T22:24:35;4.80;93.20
21489;DHT22;10906;45.194;5.684;2023-03-01T22:27:22;4.80;93.60
21489;DHT22;10906;45.194;5.684;2023-03-01T22:30:08;4.10;93.50
21489;DHT22;10906;45.194;5.684;2023-03-01T22:32:54;4.30;92.80
21489;DHT22;10906;45.194;5.684;2023-03-01T22:35:44;4.70;93.10
21489;DHT22;10906;45.194;5.684;2023-03-01T22:38:29;4.70;93.10
21489;DHT22;10906;45.194;5.684;2023-03-01T22:41:13;4.80;93.40
21489;DHT22;10906;45.194;5.684;2023-03-01T22:44:09;4.70;93.20
21489;DHT22;10906;45.194;5.684;2023-03-01T22:46:54;4.80;93.30
21489;DHT22;10906;45.194;5.684;2023-03-01T22:52:32;4.20;92.70
21489;DHT22;10906;45.194;5.684;2023-03-01T22:55:23;4.90;93.40
21489;DHT22;10906;45.194;5.684;2023-03-01T22:58:07;4.80;93.50
